createdAt,value
2022-10-25T13:55:36.475Z,17.10
2022-10-25T13:58:44.307Z,17.10
2022-10-25T14:01:56.923Z,17.10
2022-10-25T14:04:35.976Z,17.00
2022-10-25T14:07:40.918Z,17.00
2022-10-25T14:10:16.355Z,17.00
2022-10-25T14:12:50.004Z,17.00
2022-10-25T14:15:29.459Z,16.90
2022-10-25T14:17:58.850Z,16.90
2022-10-25T14:20:30.385Z,16.90
2022-10-25T14:23:01.723Z,16.90
2022-10-25T14:25:36.161Z,16.80
2022-10-25T14:28:15.095Z,16.80
2022-10-25T14:30:44.830Z,16.70
2022-10-25T14:33:25.059Z,16.60
2022-10-25T14:35:55.845Z,16.60
2022-10-25T14:38:25.954Z,16.50
2022-10-25T14:40:55.895Z,16.40
2022-10-25T14:43:31.290Z,16.40
2022-10-25T14:46:11.019Z,16.30
2022-10-25T14:48:39.139Z,16.30
2022-10-25T14:51:12.321Z,16.30
2022-10-25T14:53:54.347Z,16.20
2022-10-25T14:56:26.037Z,16.20
2022-10-25T14:58:56.282Z,16.10
2022-10-25T15:01:24.864Z,16.10
2022-10-25T15:03:55.762Z,16.00
2022-10-25T15:06:26.542Z,15.90
2022-10-25T15:09:14.862Z,15.80
2022-10-25T15:12:03.507Z,15.80
2022-10-25T15:14:33.511Z,15.70
2022-10-25T15:17:06.089Z,15.60
2022-10-25T15:19:34.094Z,15.50
2022-10-25T15:22:10.799Z,15.40
2022-10-25T15:24:46.075Z,15.40
2022-10-25T15:27:28.437Z,15.30
2022-10-25T15:29:57.915Z,15.20
2022-10-25T15:32:28.474Z,15.20
2022-10-25T15:34:58.928Z,15.10
2022-10-25T15:37:28.396Z,15.00
2022-10-25T15:39:57.591Z,14.90
2022-10-25T15:42:27.091Z,14.80
2022-10-25T15:44:56.945Z,14.80
2022-10-25T15:47:31.669Z,14.70
2022-10-25T15:50:00.835Z,14.70
2022-10-25T15:52:29.603Z,14.50
2022-10-25T15:54:57.656Z,14.40
2022-10-25T15:57:27.248Z,14.40
2022-10-25T15:59:56.754Z,14.30
2022-10-25T16:02:28.391Z,14.30
2022-10-25T16:04:57.081Z,14.20
2022-10-25T16:07:25.251Z,14.10
2022-10-25T16:09:53.227Z,14.10
2022-10-25T16:12:26.075Z,14.00
2022-10-25T16:14:54.360Z,13.90
2022-10-25T16:17:24.581Z,13.80
2022-10-25T16:19:52.598Z,13.70
2022-10-25T16:22:23.048Z,13.60
2022-10-25T16:24:51.065Z,13.60
2022-10-25T16:27:19.926Z,13.50
2022-10-25T16:29:48.215Z,13.40
2022-10-25T16:32:18.969Z,13.30
2022-10-25T16:34:48.410Z,13.30
2022-10-25T16:37:16.402Z,13.30
2022-10-25T16:39:46.278Z,13.20
2022-10-25T16:42:28.898Z,13.10
2022-10-25T16:44:57.477Z,13.00
2022-10-25T16:47:26.433Z,13.00
2022-10-25T16:49:56.259Z,12.80
2022-10-25T16:52:24.376Z,12.70
2022-10-25T16:54:52.950Z,12.60
2022-10-25T16:57:20.951Z,12.60
2022-10-25T16:59:50.570Z,12.50
2022-10-25T17:02:20.572Z,12.50
2022-10-25T17:04:49.525Z,12.50
2022-10-25T17:07:19.190Z,12.50
2022-10-25T17:09:48.259Z,12.50
2022-10-25T17:12:18.744Z,12.40
2022-10-25T17:14:46.905Z,12.30
2022-10-25T17:17:15.140Z,12.20
2022-10-25T17:19:43.485Z,12.10
2022-10-25T17:22:11.948Z,12.00
2022-10-25T17:24:41.504Z,12.00
2022-10-25T17:27:09.480Z,11.90
2022-10-25T17:29:38.512Z,11.90
2022-10-25T17:32:06.975Z,11.80
2022-10-25T17:34:35.024Z,11.80
2022-10-25T17:37:03.811Z,11.80
2022-10-25T17:39:31.929Z,11.90
